createdAt,value
2023-01-02T00:01:18.261Z,1.50
2023-01-02T00:03:46.338Z,1.60
2023-01-02T00:06:14.756Z,1.50
2023-01-02T00:08:42.688Z,1.60
2023-01-02T00:11:10.610Z,1.50
2023-01-02T00:13:39.971Z,1.50
2023-01-02T00:16:08.733Z,1.50
2023-01-02T00:18:36.687Z,1.60
2023-01-02T00:21:05.912Z,1.70
2023-01-02T00:23:34.443Z,1.60
2023-01-02T00:26:02.668Z,1.60
2023-01-02T00:28:30.943Z,1.60
2023-01-02T00:31:00.297Z,1.60
2023-01-02T00:33:28.199Z,1.60
2023-01-02T00:35:56.122Z,1.70
2023-01-02T00:38:24.012Z,1.90
2023-01-02T00:40:51.952Z,1.90
2023-01-02T00:43:19.897Z,2.10
2023-01-02T00:45:48.764Z,2.10
2023-01-02T00:48:18.033Z,2.10
2023-01-02T00:50:46.098Z,1.90
2023-01-02T00:53:14.106Z,1.80
2023-01-02T00:55:42.078Z,2.10
2023-01-02T00:58:10.020Z,2.10
2023-01-02T01:00:38.174Z,2.00
2023-01-02T01:03:06.330Z,2.00
2023-01-02T01:05:35.689Z,1.90
2023-01-02T01:08:03.628Z,1.80
2023-01-02T01:10:31.560Z,1.90
2023-01-02T01:12:59.469Z,1.90
2023-01-02T01:15:27.439Z,2.00
2023-01-02T01:17:55.412Z,2.20
2023-01-02T01:20:23.512Z,2.20
2023-01-02T01:22:52.829Z,2.10
2023-01-02T01:25:20.764Z,2.20
2023-01-02T01:27:48.747Z,2.20
2023-01-02T01:30:16.661Z,2.30
2023-01-02T01:32:44.572Z,2.40
2023-01-02T01:35:12.502Z,2.50
2023-01-02T01:37:40.601Z,2.60
2023-01-02T01:40:10.675Z,2.60
2023-01-02T01:42:38.610Z,2.50
2023-01-02T01:45:14.613Z,2.70
2023-01-02T01:47:46.058Z,2.60
2023-01-02T01:50:19.396Z,2.70
2023-01-02T01:52:51.291Z,2.80
2023-01-02T01:55:23.514Z,2.80
2023-01-02T01:57:54.951Z,2.70
2023-01-02T02:00:22.945Z,2.80
2023-01-02T02:02:53.404Z,2.90
2023-01-02T02:05:24.807Z,3.00
2023-01-02T02:08:04.865Z,2.90
2023-01-02T02:10:34.503Z,2.90
2023-01-02T02:13:02.415Z,2.90
2023-01-02T02:15:40.503Z,2.90
2023-01-02T02:18:18.652Z,3.00
2023-01-02T02:20:52.569Z,3.10
2023-01-02T02:23:54.157Z,3.10
2023-01-02T02:27:00.810Z,3.10
2023-01-02T02:30:02.147Z,3.20
2023-01-02T02:32:38.580Z,3.10
2023-01-02T02:35:15.796Z,3.10
2023-01-02T02:37:53.883Z,3.00
2023-01-02T02:40:31.667Z,3.20
2023-01-02T02:43:09.588Z,3.20
2023-01-02T02:45:49.283Z,3.20
2023-01-02T02:48:24.287Z,3.30
2023-01-02T02:51:01.648Z,3.30
2023-01-02T02:53:36.905Z,3.30
2023-01-02T02:56:08.625Z,3.30
2023-01-02T02:58:38.958Z,3.30
2023-01-02T03:01:13.713Z,3.40
2023-01-02T03:03:41.706Z,3.40
2023-01-02T03:06:22.263Z,3.30
2023-01-02T03:09:05.147Z,3.40
2023-01-02T03:11:40.956Z,3.30
2023-01-02T03:14:18.671Z,3.40
2023-01-02T03:16:50.728Z,3.50
2023-01-02T03:19:28.539Z,3.50
2023-01-02T03:22:02.464Z,3.60
2023-01-02T03:24:31.959Z,3.60
2023-01-02T03:27:04.676Z,3.60
2023-01-02T03:29:37.679Z,3.60
2023-01-02T03:32:11.756Z,3.60
2023-01-02T03:34:41.623Z,3.60
2023-01-02T03:37:12.725Z,3.50
2023-01-02T03:39:45.868Z,3.60
2023-01-02T03:42:17.580Z,3.60
2023-01-02T03:44:49.576Z,3.50
2023-01-02T03:47:28.060Z,3.60
2023-01-02T03:50:00.302Z,3.60
2023-01-02T03:52:28.209Z,3.60
2023-01-02T03:54:57.988Z,3.80
2023-01-02T03:57:34.417Z,3.80
2023-01-02T04:00:06.953Z,3.80
2023-01-02T04:02:39.952Z,3.70
2023-01-02T04:05:16.315Z,3.80
2023-01-02T04:07:52.710Z,3.90
2023-01-02T04:10:21.696Z,3.80
2023-01-02T04:12:56.020Z,3.70
2023-01-02T04:15:27.625Z,3.80
2023-01-02T04:18:02.062Z,3.80
2023-01-02T04:20:33.103Z,3.80
2023-01-02T04:23:05.465Z,3.80
2023-01-02T04:25:39.695Z,3.60
2023-01-02T04:28:12.556Z,3.70
2023-01-02T04:30:43.907Z,3.80
2023-01-02T04:33:15.524Z,3.70
2023-01-02T04:35:43.569Z,3.60
2023-01-02T04:38:13.200Z,3.50
2023-01-02T04:40:41.820Z,3.70
2023-01-02T04:43:17.887Z,3.70
2023-01-02T04:45:45.813Z,3.60
2023-01-02T04:48:15.118Z,3.60
2023-01-02T04:50:43.087Z,3.50
2023-01-02T04:53:11.076Z,3.70
2023-01-02T04:55:39.729Z,3.80
2023-01-02T04:58:08.309Z,3.70
2023-01-02T05:00:36.272Z,3.80
2023-01-02T05:03:05.300Z,3.60
2023-01-02T05:05:34.734Z,3.70
2023-01-02T05:08:02.665Z,3.80
2023-01-02T05:10:30.613Z,3.70
2023-01-02T05:12:59.913Z,3.60
2023-01-02T05:15:27.878Z,3.70
2023-01-02T05:17:56.164Z,3.70
2023-01-02T05:20:24.282Z,3.60
2023-01-02T05:23:10.954Z,3.60
2023-01-02T05:25:38.881Z,3.80
2023-01-02T05:28:06.803Z,3.90
2023-01-02T05:30:34.806Z,3.80
2023-01-02T05:33:02.753Z,3.70
2023-01-02T05:35:33.223Z,3.80
2023-01-02T05:38:03.262Z,3.80
2023-01-02T05:40:31.605Z,3.90
2023-01-02T05:42:59.983Z,3.90
2023-01-02T05:45:27.922Z,3.80
2023-01-02T05:47:56.020Z,3.80
2023-01-02T05:50:24.108Z,3.90
2023-01-02T05:52:52.052Z,3.70
2023-01-02T05:55:21.308Z,3.80
2023-01-02T05:57:49.679Z,3.80
2023-01-02T06:00:18.098Z,3.80
2023-01-02T06:02:48.206Z,3.80
2023-01-02T06:05:16.967Z,3.60
2023-01-02T06:07:45.066Z,3.60
2023-01-02T06:10:13.116Z,3.60
2023-01-02T06:12:42.471Z,3.70
2023-01-02T06:15:11.032Z,3.60
2023-01-02T06:17:38.954Z,3.70
2023-01-02T06:20:08.149Z,3.70
2023-01-02T06:22:36.147Z,3.50
2023-01-02T06:25:04.319Z,3.60
2023-01-02T06:27:33.669Z,3.30
2023-01-02T06:30:03.007Z,3.40
2023-01-02T06:32:31.169Z,3.40
2023-01-02T06:34:59.085Z,3.50
2023-01-02T06:37:27.260Z,3.70
2023-01-02T06:39:55.190Z,3.70
2023-01-02T06:42:23.167Z,3.70
2023-01-02T06:44:51.093Z,3.80
2023-01-02T06:47:20.357Z,3.90
2023-01-02T06:49:48.276Z,3.70
2023-01-02T06:52:16.197Z,3.80
2023-01-02T06:54:44.172Z,3.80
2023-01-02T06:57:12.107Z,3.90
2023-01-02T06:59:40.030Z,4.00
2023-01-02T07:02:08.079Z,3.90
2023-01-02T07:04:37.389Z,3.90
2023-01-02T07:07:05.635Z,3.90
2023-01-02T07:09:33.799Z,3.90
2023-01-02T07:12:01.806Z,3.90
2023-01-02T07:14:29.980Z,3.80
2023-01-02T07:16:57.968Z,3.80
2023-01-02T07:19:26.012Z,3.80
2023-01-02T07:21:55.309Z,3.80
2023-01-02T07:24:23.226Z,3.70
2023-01-02T07:26:51.155Z,3.80
2023-01-02T07:29:19.041Z,3.80
2023-01-02T07:31:46.996Z,3.90
2023-01-02T07:34:15.024Z,3.90
2023-01-02T07:36:42.916Z,3.80
2023-01-02T07:39:12.209Z,3.80
2023-01-02T07:41:40.123Z,3.70
2023-01-02T07:44:08.121Z,3.70
2023-01-02T07:46:36.343Z,3.80
2023-01-02T07:49:04.382Z,3.90
2023-01-02T07:51:32.541Z,3.90
2023-01-02T07:54:00.567Z,4.00
2023-01-02T07:56:29.896Z,4.00
2023-01-02T07:58:57.835Z,3.90
2023-01-02T08:01:26.081Z,4.00
2023-01-02T08:03:54.101Z,4.00
2023-01-02T08:06:22.099Z,4.00
2023-01-02T08:08:50.091Z,3.90
2023-01-02T08:11:19.955Z,4.00
2023-01-02T08:13:49.779Z,3.90
2023-01-02T08:16:19.875Z,3.80
2023-01-02T08:18:51.266Z,3.80
2023-01-02T08:21:19.361Z,4.00
2023-01-02T08:23:47.290Z,4.00
2023-01-02T08:26:15.547Z,4.10
2023-01-02T08:28:43.900Z,4.10
2023-01-02T08:31:16.284Z,4.20
2023-01-02T08:33:44.418Z,4.20
2023-01-02T08:36:14.456Z,4.30
2023-01-02T08:38:42.692Z,4.20
2023-01-02T08:41:10.900Z,4.20
2023-01-02T08:43:39.296Z,4.20
2023-01-02T08:46:08.740Z,4.30
2023-01-02T08:48:38.126Z,4.30
2023-01-02T08:51:06.660Z,4.10
2023-01-02T08:53:34.659Z,4.20
2023-01-02T08:56:20.056Z,4.20
2023-01-02T08:58:52.879Z,4.10
2023-01-02T09:01:21.402Z,4.00
2023-01-02T09:03:51.295Z,4.10
2023-01-02T09:06:22.380Z,4.10
2023-01-02T09:08:52.979Z,4.20
2023-01-02T09:11:24.069Z,4.30
2023-01-02T09:13:52.216Z,4.40
2023-01-02T09:16:20.315Z,4.40
2023-01-02T09:18:48.419Z,4.50
2023-01-02T09:21:18.085Z,4.50
2023-01-02T09:23:46.005Z,4.60
2023-01-02T09:26:14.936Z,4.50
2023-01-02T09:28:42.991Z,4.60
2023-01-02T09:31:14.367Z,4.50
2023-01-02T09:33:44.185Z,4.50
2023-01-02T09:36:15.233Z,4.30
2023-01-02T09:38:44.631Z,4.20
2023-01-02T09:41:27.713Z,4.10
2023-01-02T09:43:59.233Z,4.00
2023-01-02T09:46:32.628Z,4.00
2023-01-02T09:49:01.533Z,3.90
2023-01-02T09:51:30.185Z,4.10
2023-01-02T09:53:59.501Z,4.10
2023-01-02T09:56:34.348Z,4.10
2023-01-02T09:59:11.105Z,4.00
2023-01-02T10:01:52.615Z,4.20
2023-01-02T10:04:32.713Z,4.30
2023-01-02T10:07:08.722Z,4.40
2023-01-02T10:09:48.714Z,4.50
2023-01-02T10:12:22.580Z,4.60
2023-01-02T10:14:55.555Z,4.40
2023-01-02T10:17:24.435Z,4.30
2023-01-02T10:19:59.431Z,4.30
2023-01-02T10:22:33.712Z,4.40
2023-01-02T10:25:08.400Z,4.50
2023-01-02T10:27:40.906Z,4.20
2023-01-02T10:30:19.563Z,4.10
2023-01-02T10:32:53.991Z,3.90
2023-01-02T10:35:34.854Z,3.90
2023-01-02T10:38:03.489Z,4.00
2023-01-02T10:40:34.267Z,3.90
2023-01-02T10:43:02.958Z,4.00
2023-01-02T10:45:31.573Z,4.00
2023-01-02T10:47:59.515Z,4.00
2023-01-02T10:50:30.685Z,4.20
2023-01-02T10:53:08.178Z,4.00
2023-01-02T10:55:40.217Z,4.20
2023-01-02T10:58:15.187Z,4.30
2023-01-02T11:00:43.432Z,4.50
2023-01-02T11:03:16.449Z,4.50
2023-01-02T11:05:47.157Z,4.70
2023-01-02T11:08:17.405Z,4.70
2023-01-02T11:10:47.624Z,4.80
2023-01-02T11:13:18.071Z,4.90
2023-01-02T11:15:51.367Z,4.80
2023-01-02T11:18:23.665Z,4.70
2023-01-02T11:20:54.431Z,4.30
2023-01-02T11:23:25.292Z,4.30
2023-01-02T11:25:55.527Z,4.40
2023-01-02T11:28:27.339Z,4.20
2023-01-02T11:31:01.263Z,4.20
2023-01-02T11:33:30.662Z,4.40
2023-01-02T11:36:05.741Z,4.70
2023-01-02T11:38:44.308Z,4.90
2023-01-02T11:41:46.438Z,4.90
2023-01-02T11:44:20.762Z,5.00
2023-01-02T11:46:50.369Z,5.10
2023-01-02T11:49:21.827Z,5.10
2023-01-02T11:51:55.756Z,5.10
2023-01-02T11:54:28.138Z,5.00
2023-01-02T11:57:00.616Z,4.90
2023-01-02T11:59:33.354Z,5.00
2023-01-02T12:02:11.672Z,4.90
2023-01-02T12:04:39.963Z,4.90
2023-01-02T12:07:21.382Z,5.00
2023-01-02T12:09:55.376Z,5.00
2023-01-02T12:12:39.345Z,4.90
2023-01-02T12:15:29.961Z,4.70
2023-01-02T12:18:05.997Z,4.80
2023-01-02T12:20:42.036Z,4.90
2023-01-02T12:23:37.089Z,5.10
2023-01-02T12:26:11.524Z,5.00
2023-01-02T12:29:06.457Z,4.80
2023-01-02T12:31:52.829Z,4.90
2023-01-02T12:34:34.400Z,4.90
2023-01-02T12:37:13.312Z,4.90
2023-01-02T12:40:16.585Z,5.10
2023-01-02T12:43:03.274Z,5.00
2023-01-02T12:45:41.445Z,5.10
2023-01-02T12:48:21.919Z,5.10
2023-01-02T12:51:08.479Z,4.70
2023-01-02T12:54:18.947Z,4.90
2023-01-02T12:56:57.021Z,4.70
2023-01-02T12:59:48.637Z,4.70
2023-01-02T13:02:35.285Z,4.90
2023-01-02T13:05:08.525Z,5.20
2023-01-02T13:07:40.929Z,5.00
2023-01-02T13:10:15.810Z,5.00
2023-01-02T13:12:46.251Z,5.10
2023-01-02T13:15:20.641Z,5.20
2023-01-02T13:17:59.804Z,5.30
2023-01-02T13:20:36.890Z,5.20
2023-01-02T13:23:22.046Z,5.20
2023-01-02T13:25:53.900Z,5.00
2023-01-02T13:28:24.690Z,5.10
2023-01-02T13:31:44.009Z,5.20
2023-01-02T13:33:56.538Z,5.10
2023-01-02T13:36:28.313Z,5.10
2023-01-02T13:38:59.080Z,5.00
2023-01-02T13:41:28.011Z,5.10
2023-01-02T13:43:59.496Z,5.00
2023-01-02T13:47:01.893Z,5.00
2023-01-02T13:49:22.202Z,5.00
2023-01-02T13:51:50.176Z,5.10
2023-01-02T13:54:21.065Z,5.10
2023-01-02T13:57:18.117Z,4.80
2023-01-02T13:59:58.154Z,4.80
2023-01-02T14:02:26.750Z,4.90
2023-01-02T14:04:56.254Z,4.90
2023-01-02T14:07:46.278Z,4.90
2023-01-02T14:10:34.677Z,4.90
2023-01-02T14:13:10.789Z,5.00
2023-01-02T14:16:17.655Z,4.80
2023-01-02T14:18:46.912Z,4.60
2023-01-02T14:21:19.737Z,4.50
2023-01-02T14:24:17.057Z,4.60
2023-01-02T14:26:40.595Z,4.50
2023-01-02T14:29:16.638Z,4.40
2023-01-02T14:31:45.151Z,4.30
2023-01-02T14:34:22.456Z,4.30
2023-01-02T14:36:55.002Z,4.20
2023-01-02T14:39:27.312Z,4.10
2023-01-02T14:42:29.313Z,4.10
2023-01-02T14:45:00.811Z,4.20
2023-01-02T14:47:37.605Z,4.30
2023-01-02T14:50:10.870Z,4.40
2023-01-02T14:52:43.464Z,4.30
2023-01-02T14:55:16.838Z,4.30
2023-01-02T14:57:48.848Z,4.40
2023-01-02T15:00:26.888Z,4.40
2023-01-02T15:02:59.454Z,4.20
2023-01-02T15:05:34.839Z,4.40
2023-01-02T15:08:08.223Z,4.40
2023-01-02T15:10:55.508Z,4.40
2023-01-02T15:13:26.436Z,4.50
2023-01-02T15:15:57.572Z,4.50
2023-01-02T15:18:29.254Z,4.40
2023-01-02T15:21:03.812Z,4.50
2023-01-02T15:23:33.203Z,4.60
2023-01-02T15:26:32.481Z,4.60
2023-01-02T15:28:57.050Z,4.50
2023-01-02T15:31:25.013Z,4.50
2023-01-02T15:33:54.269Z,4.50
2023-01-02T15:36:33.908Z,4.30
2023-01-02T15:39:16.747Z,4.30
2023-01-02T15:41:47.199Z,4.20
2023-01-02T15:44:38.119Z,4.20
2023-01-02T15:47:08.362Z,4.10
2023-01-02T15:49:37.261Z,4.20
2023-01-02T15:52:06.082Z,4.20
2023-01-02T15:54:37.558Z,4.10
2023-01-02T15:57:11.645Z,4.10
2023-01-02T15:59:39.751Z,4.20
2023-01-02T16:02:18.882Z,4.20
2023-01-02T16:04:47.369Z,4.20
2023-01-02T16:07:29.737Z,4.00
2023-01-02T16:09:59.021Z,4.10
2023-01-02T16:12:27.038Z,4.20
2023-01-02T16:14:57.926Z,4.20
2023-01-02T16:17:28.364Z,4.20
2023-01-02T16:19:59.798Z,4.20
2023-01-02T16:22:30.521Z,4.20
2023-01-02T16:25:05.746Z,4.00
2023-01-02T16:27:37.265Z,4.10
2023-01-02T16:30:16.676Z,4.10
2023-01-02T16:32:49.190Z,4.20
2023-01-02T16:35:22.546Z,4.20
2023-01-02T16:37:53.876Z,4.00
2023-01-02T16:41:01.908Z,4.10
2023-01-02T16:43:33.438Z,4.10
2023-01-02T16:46:04.780Z,4.20
2023-01-02T16:48:33.740Z,4.10
2023-01-02T16:51:01.691Z,4.10
2023-01-02T16:53:32.850Z,4.10
2023-01-02T16:56:02.229Z,4.20
2023-01-02T16:58:30.143Z,4.20
2023-01-02T17:00:58.246Z,4.20
2023-01-02T17:03:27.818Z,4.20
2023-01-02T17:06:02.382Z,4.20
2023-01-02T17:08:31.335Z,4.10
2023-01-02T17:10:59.723Z,4.10
2023-01-02T17:13:29.984Z,4.00
2023-01-02T17:15:58.103Z,4.10
2023-01-02T17:18:26.472Z,4.10
2023-01-02T17:20:54.424Z,4.20
2023-01-02T17:23:22.546Z,4.20
2023-01-02T17:25:50.488Z,4.10
2023-01-02T17:28:18.931Z,4.10
2023-01-02T17:30:50.028Z,4.10
2023-01-02T17:33:18.647Z,4.10
2023-01-02T17:35:46.743Z,4.00
2023-01-02T17:38:15.122Z,4.00
2023-01-02T17:40:43.159Z,3.80
2023-01-02T17:43:11.121Z,3.80
2023-01-02T17:45:39.144Z,3.80
2023-01-02T17:48:12.697Z,3.80
2023-01-02T17:50:42.376Z,3.70
2023-01-02T17:53:10.363Z,3.60
2023-01-02T17:55:38.498Z,3.60
2023-01-02T17:58:06.468Z,3.60
2023-01-02T18:00:34.451Z,3.40
2023-01-02T18:03:02.531Z,3.40
2023-01-02T18:05:32.805Z,3.50
2023-01-02T18:08:00.709Z,3.50
2023-01-02T18:10:32.969Z,3.50
2023-01-02T18:13:01.288Z,3.50
2023-01-02T18:15:29.531Z,3.60
2023-01-02T18:18:00.530Z,3.60
2023-01-02T18:20:28.640Z,3.50
2023-01-02T18:22:58.827Z,3.50
2023-01-02T18:25:32.424Z,3.60
2023-01-02T18:28:03.947Z,3.80
2023-01-02T18:30:32.414Z,3.80
2023-01-02T18:33:07.979Z,3.80
2023-01-02T18:38:31.174Z,3.50
2023-01-02T18:40:59.339Z,3.70
2023-01-02T18:43:29.777Z,3.90
2023-01-02T18:45:59.967Z,3.80
2023-01-02T18:48:28.019Z,3.80
2023-01-02T18:51:01.529Z,3.70
2023-01-02T18:53:36.485Z,3.70
2023-01-02T18:56:13.272Z,3.70
2023-01-02T18:58:43.528Z,3.70
2023-01-02T19:01:25.959Z,3.60
2023-01-02T19:03:58.252Z,3.60
2023-01-02T19:06:28.567Z,3.50
2023-01-02T19:09:08.017Z,3.40
2023-01-02T19:11:53.493Z,3.40
2023-01-02T19:14:24.620Z,3.40
2023-01-02T19:17:05.706Z,3.40
2023-01-02T19:19:40.356Z,3.40
2023-01-02T19:22:14.283Z,3.40
2023-01-02T19:24:43.603Z,3.40
2023-01-02T19:27:22.954Z,3.40
2023-01-02T19:29:52.260Z,3.40
2023-01-02T19:32:31.236Z,3.40
2023-01-02T19:35:01.669Z,3.40
2023-01-02T19:37:38.907Z,3.40
2023-01-02T19:40:19.027Z,3.40
2023-01-02T19:42:47.686Z,3.40
2023-01-02T19:45:17.492Z,3.40
2023-01-02T19:47:45.726Z,3.30
2023-01-02T19:50:15.784Z,3.30
2023-01-02T19:52:43.911Z,3.30
2023-01-02T19:55:14.329Z,3.30
2023-01-02T19:57:42.578Z,3.30
2023-01-02T20:00:13.685Z,3.30
2023-01-02T20:02:42.469Z,3.30
2023-01-02T20:05:13.577Z,3.30
2023-01-02T20:07:44.783Z,3.30
2023-01-02T20:10:14.657Z,3.30
2023-01-02T20:12:42.656Z,3.20
2023-01-02T20:15:12.740Z,3.20
2023-01-02T20:17:41.060Z,3.10
2023-01-02T20:20:13.128Z,3.10
2023-01-02T20:22:41.551Z,3.10
2023-01-02T20:25:09.988Z,3.10
2023-01-02T20:27:39.365Z,2.80
2023-01-02T20:30:08.660Z,2.80
2023-01-02T20:32:37.003Z,2.50
2023-01-02T20:35:05.465Z,2.70
2023-01-02T20:37:34.150Z,2.80
2023-01-02T20:40:02.150Z,2.80
2023-01-02T20:42:30.229Z,2.80
2023-01-02T20:44:59.518Z,2.80
2023-01-02T20:47:27.422Z,2.80
2023-01-02T20:49:55.408Z,2.80
2023-01-02T20:52:23.413Z,2.80
2023-01-02T20:54:51.594Z,2.80
2023-01-02T20:57:19.547Z,2.70
2023-01-02T20:59:47.605Z,2.70
2023-01-02T21:02:17.066Z,2.70
2023-01-02T21:04:45.369Z,2.50
2023-01-02T21:07:13.327Z,2.40
2023-01-02T21:09:41.290Z,2.50
2023-01-02T21:12:29.331Z,2.30
2023-01-02T21:14:58.136Z,2.40
2023-01-02T21:17:27.434Z,2.50
2023-01-02T21:19:55.348Z,2.50
2023-01-02T21:22:23.314Z,2.50
2023-01-02T21:24:51.364Z,2.50
2023-01-02T21:27:19.542Z,2.50
2023-01-02T21:29:47.774Z,2.30
2023-01-02T21:32:15.736Z,2.30
2023-01-02T21:34:45.257Z,2.30
2023-01-02T21:37:13.195Z,2.10
2023-01-02T21:39:41.163Z,2.00
2023-01-02T21:42:17.765Z,2.00
2023-01-02T21:44:47.679Z,2.00
2023-01-02T21:47:16.259Z,2.10
2023-01-02T21:49:45.786Z,2.00
2023-01-02T21:52:13.771Z,2.00
2023-01-02T21:54:41.735Z,2.00
2023-01-02T21:57:09.956Z,2.00
2023-01-02T21:59:38.067Z,1.90
2023-01-02T22:02:06.695Z,1.90
2023-01-02T22:04:35.638Z,1.90
2023-01-02T22:07:30.549Z,1.90
2023-01-02T22:09:52.910Z,1.80
2023-01-02T22:12:20.949Z,1.80
2023-01-02T22:14:49.009Z,1.80
2023-01-02T22:17:16.988Z,1.60
2023-01-02T22:19:44.880Z,1.70
2023-01-02T22:22:14.326Z,1.70
2023-01-02T22:24:44.661Z,1.70
2023-01-02T22:27:14.489Z,1.70
2023-01-02T22:32:33.536Z,1.60
2023-01-02T22:35:03.464Z,1.50
2023-01-02T22:37:32.901Z,1.60
2023-01-02T22:40:01.552Z,1.50
2023-01-02T22:43:00.481Z,1.50
2023-01-02T22:45:32.022Z,1.40
2023-01-02T22:48:04.686Z,1.40
2023-01-02T22:50:45.674Z,1.40
2023-01-02T22:53:24.291Z,1.40
2023-01-02T22:55:52.466Z,1.40
2023-01-02T22:58:21.240Z,1.30
2023-01-02T23:00:54.371Z,1.30
2023-01-02T23:03:22.433Z,1.30
2023-01-02T23:05:50.317Z,1.30
2023-01-02T23:08:18.227Z,1.30
2023-01-02T23:10:47.729Z,1.30
2023-01-02T23:13:15.690Z,1.30
2023-01-02T23:15:57.639Z,1.30
2023-01-02T23:18:43.105Z,1.30
2023-01-02T23:21:11.414Z,1.30
2023-01-02T23:23:39.400Z,1.30
2023-01-02T23:26:09.043Z,1.20
2023-01-02T23:29:06.112Z,1.30
2023-01-02T23:31:24.935Z,1.30
2023-01-02T23:33:52.916Z,1.30
2023-01-02T23:36:20.876Z,1.20
2023-01-02T23:38:48.857Z,1.10
2023-01-02T23:41:18.168Z,1.10
2023-01-02T23:43:46.114Z,1.20
2023-01-02T23:46:14.140Z,1.20
2023-01-02T23:48:42.091Z,1.20
2023-01-02T23:51:10.014Z,1.20
2023-01-02T23:53:37.952Z,1.20
2023-01-02T23:56:11.762Z,1.20
2023-01-02T23:58:41.002Z,1.20
